createdAt,value
2019-05-26T00:00:33.380Z,5.77
2019-05-26T00:03:05.113Z,5.80
2019-05-26T00:05:36.815Z,5.77
2019-05-26T00:08:08.627Z,6.10
2019-05-26T00:10:40.341Z,5.23
2019-05-26T00:13:12.181Z,6.00
2019-05-26T00:15:43.981Z,5.27
2019-05-26T00:18:15.797Z,5.47
2019-05-26T00:20:47.498Z,5.33
2019-05-26T00:23:19.641Z,5.20
2019-05-26T00:25:51.339Z,5.87
2019-05-26T00:28:23.787Z,5.13
2019-05-26T00:30:55.485Z,6.13
2019-05-26T00:33:27.216Z,6.90
2019-05-26T00:35:58.920Z,5.80
2019-05-26T00:38:30.680Z,6.30
2019-05-26T00:41:02.402Z,6.03
2019-05-26T00:43:34.129Z,6.37
2019-05-26T00:46:05.819Z,7.03
2019-05-26T00:48:37.640Z,6.20
2019-05-26T00:51:09.456Z,6.47
2019-05-26T00:53:41.294Z,7.23
2019-05-26T00:56:13.091Z,6.77
2019-05-26T00:58:44.813Z,7.97
2019-05-26T01:01:16.520Z,7.17
2019-05-26T01:03:48.321Z,6.50
2019-05-26T01:06:20.130Z,8.40
2019-05-26T01:08:51.960Z,7.37
2019-05-26T01:11:23.657Z,7.63
2019-05-26T01:13:55.385Z,7.90
2019-05-26T01:16:27.085Z,8.77
2019-05-26T01:18:58.812Z,8.17
2019-05-26T01:21:30.628Z,8.30
2019-05-26T01:24:02.451Z,10.53
2019-05-26T01:26:34.160Z,9.27
2019-05-26T01:29:05.899Z,9.50
2019-05-26T01:31:37.696Z,9.67
2019-05-26T01:34:09.519Z,8.83
2019-05-26T01:36:41.568Z,9.17
2019-05-26T01:39:13.300Z,9.10
2019-05-26T01:41:45.037Z,8.70
2019-05-26T01:44:16.865Z,8.23
2019-05-26T01:46:48.575Z,10.10
2019-05-26T01:49:20.382Z,8.80
2019-05-26T01:51:52.085Z,10.13
2019-05-26T01:54:23.817Z,8.93
2019-05-26T01:56:55.525Z,8.73
2019-05-26T01:59:27.252Z,9.47
2019-05-26T02:01:59.045Z,9.20
2019-05-26T02:04:31.024Z,9.00
2019-05-26T02:07:02.944Z,8.83
2019-05-26T02:09:34.689Z,8.77
2019-05-26T02:12:06.494Z,9.20
2019-05-26T02:14:38.241Z,8.33
2019-05-26T02:17:10.148Z,9.80
2019-05-26T02:19:41.873Z,8.77
2019-05-26T02:22:13.577Z,8.97
2019-05-26T02:24:45.286Z,8.60
2019-05-26T02:27:16.988Z,8.03
2019-05-26T02:29:48.700Z,9.27
2019-05-26T02:32:20.400Z,9.90
2019-05-26T02:34:52.128Z,13.17
2019-05-26T02:37:23.841Z,11.67
2019-05-26T02:39:55.568Z,15.30
2019-05-26T02:42:27.343Z,10.67
2019-05-26T02:44:59.643Z,10.53
2019-05-26T02:47:31.588Z,11.23
2019-05-26T02:50:04.528Z,10.80
2019-05-26T02:52:36.306Z,10.47
2019-05-26T02:55:08.736Z,10.40
2019-05-26T02:57:40.439Z,11.23
2019-05-26T03:00:16.199Z,10.90
2019-05-26T03:02:47.997Z,9.83
2019-05-26T03:05:19.995Z,9.77
2019-05-26T03:07:52.489Z,10.70
2019-05-26T03:10:24.309Z,9.57
2019-05-26T03:12:58.315Z,11.13
2019-05-26T03:15:33.036Z,10.60
2019-05-26T03:18:05.164Z,11.50
2019-05-26T03:20:38.881Z,11.30
2019-05-26T03:23:10.788Z,11.37
2019-05-26T03:25:42.823Z,10.20
2019-05-26T03:28:14.641Z,10.20
2019-05-26T03:30:46.695Z,10.90
2019-05-26T03:33:18.473Z,11.03
2019-05-26T03:35:50.393Z,10.27
2019-05-26T03:38:22.198Z,14.00
2019-05-26T03:40:54.018Z,11.77
2019-05-26T03:43:25.827Z,10.67
2019-05-26T03:46:18.231Z,11.70
2019-05-26T03:48:50.253Z,15.87
2019-05-26T03:51:22.131Z,11.13
2019-05-26T03:53:53.971Z,12.10
2019-05-26T03:56:25.780Z,11.70
2019-05-26T03:58:57.580Z,11.80
2019-05-26T04:01:29.415Z,11.07
2019-05-26T04:04:01.196Z,11.10
2019-05-26T04:06:32.924Z,10.70
2019-05-26T04:09:06.257Z,11.07
2019-05-26T04:11:37.982Z,10.87
2019-05-26T04:14:09.774Z,11.07
2019-05-26T04:16:41.485Z,10.03
2019-05-26T04:19:13.278Z,11.60
2019-05-26T04:21:44.991Z,10.33
2019-05-26T04:24:16.692Z,10.50
2019-05-26T04:26:48.408Z,10.37
2019-05-26T04:29:20.225Z,10.60
2019-05-26T04:31:51.963Z,9.93
2019-05-26T04:34:23.834Z,9.60
2019-05-26T04:36:55.569Z,10.43
2019-05-26T04:39:27.313Z,11.03
2019-05-26T04:41:59.053Z,10.37
2019-05-26T04:44:30.748Z,10.30
2019-05-26T04:47:02.574Z,10.80
2019-05-26T04:49:37.186Z,8.90
2019-05-26T04:52:07.991Z,9.10
2019-05-26T04:54:39.697Z,9.57
2019-05-26T04:57:11.410Z,9.87
2019-05-26T04:59:43.129Z,8.57
2019-05-26T05:02:14.961Z,7.90
2019-05-26T05:04:46.763Z,8.53
2019-05-26T05:07:18.512Z,8.70
2019-05-26T05:09:50.307Z,8.30
2019-05-26T05:12:22.037Z,8.47
2019-05-26T05:14:53.741Z,8.20
2019-05-26T05:17:25.452Z,10.03
2019-05-26T05:19:57.172Z,9.83
2019-05-26T05:22:28.885Z,8.77
2019-05-26T05:25:00.840Z,9.87
2019-05-26T05:27:32.560Z,8.87
2019-05-26T05:30:05.327Z,9.70
2019-05-26T05:32:37.163Z,9.20
2019-05-26T05:35:09.670Z,8.50
2019-05-26T05:37:41.400Z,8.80
2019-05-26T05:40:13.610Z,8.17
2019-05-26T05:42:45.325Z,7.77
2019-05-26T05:45:17.431Z,7.17
2019-05-26T05:47:49.290Z,7.33
2019-05-26T05:50:21.155Z,7.30
2019-05-26T05:52:53.057Z,6.53
2019-05-26T05:55:25.577Z,6.20
2019-05-26T05:57:57.293Z,6.57
2019-05-26T06:00:29.106Z,6.07
2019-05-26T06:03:00.945Z,5.07
2019-05-26T06:05:32.649Z,6.03
2019-05-26T06:08:04.374Z,5.60
2019-05-26T06:10:36.135Z,4.87
2019-05-26T06:13:07.944Z,4.20
2019-05-26T06:15:39.644Z,4.60
2019-05-26T06:18:11.563Z,4.20
2019-05-26T06:20:43.304Z,4.17
2019-05-26T06:23:15.032Z,3.47
2019-05-26T06:25:46.764Z,3.13
2019-05-26T06:28:18.495Z,3.20
2019-05-26T06:30:50.205Z,3.53
2019-05-26T06:33:22.095Z,3.00
2019-05-26T06:35:53.793Z,3.40
2019-05-26T06:38:25.512Z,2.70
2019-05-26T06:40:57.329Z,2.80
2019-05-26T06:43:29.061Z,3.20
2019-05-26T06:46:00.778Z,3.07
2019-05-26T06:48:32.543Z,3.30
2019-05-26T06:51:04.312Z,3.33
2019-05-26T06:53:37.505Z,3.50
2019-05-26T06:56:09.550Z,3.37
2019-05-26T06:58:41.371Z,2.47
2019-05-26T07:01:13.102Z,2.83
2019-05-26T07:03:44.941Z,3.03
2019-05-26T07:06:16.640Z,2.93
2019-05-26T07:08:48.375Z,2.80
2019-05-26T07:11:20.100Z,2.60
2019-05-26T07:13:51.826Z,2.47
2019-05-26T07:16:36.780Z,2.27
2019-05-26T07:18:57.164Z,2.47
2019-05-26T07:21:29.042Z,2.10
2019-05-26T07:24:00.755Z,2.17
2019-05-26T07:26:32.673Z,2.42
2019-05-26T07:29:04.668Z,2.50
2019-05-26T07:31:36.381Z,2.40
2019-05-26T07:34:08.117Z,2.10
2019-05-26T07:36:39.941Z,2.17
2019-05-26T07:39:11.649Z,2.67
2019-05-26T07:41:43.366Z,2.33
2019-05-26T07:44:15.133Z,2.20
2019-05-26T07:46:46.853Z,2.80
2019-05-26T07:49:18.576Z,2.60
2019-05-26T07:51:50.285Z,2.63
2019-05-26T07:54:25.527Z,2.30
2019-05-26T07:56:55.624Z,2.50
2019-05-26T07:59:27.488Z,3.23
2019-05-26T08:01:59.427Z,1.98
2019-05-26T08:04:31.236Z,2.98
2019-05-26T08:07:03.180Z,3.50
2019-05-26T08:09:34.896Z,3.35
2019-05-26T08:12:06.705Z,2.52
2019-05-26T08:14:38.428Z,2.52
2019-05-26T08:17:10.224Z,3.90
2019-05-26T08:19:42.048Z,2.60
2019-05-26T08:22:13.893Z,1.92
2019-05-26T08:24:45.613Z,3.15
2019-05-26T08:27:17.317Z,2.50
2019-05-26T08:29:49.066Z,2.12
2019-05-26T08:32:20.979Z,2.22
2019-05-26T08:34:52.765Z,1.80
2019-05-26T08:37:24.564Z,2.27
2019-05-26T08:39:58.445Z,2.25
2019-05-26T08:42:43.900Z,2.75
2019-05-26T08:45:04.573Z,2.00
2019-05-26T08:47:36.289Z,2.85
2019-05-26T08:50:08.247Z,5.25
2019-05-26T08:52:40.067Z,3.10
2019-05-26T08:55:12.068Z,3.60
2019-05-26T08:57:43.835Z,2.83
2019-05-26T09:00:16.677Z,2.95
2019-05-26T09:02:48.584Z,2.25
2019-05-26T09:05:20.720Z,2.27
2019-05-26T09:07:52.594Z,2.30
2019-05-26T09:10:24.399Z,2.75
2019-05-26T09:13:01.205Z,3.45
2019-05-26T09:15:29.749Z,3.42
2019-05-26T09:18:01.478Z,2.10
2019-05-26T09:20:33.329Z,2.70
2019-05-26T09:23:05.293Z,2.90
2019-05-26T09:25:37.188Z,2.65
2019-05-26T09:28:08.986Z,3.00
2019-05-26T09:30:40.882Z,3.15
2019-05-26T09:33:12.667Z,3.50
2019-05-26T09:35:44.500Z,2.87
2019-05-26T09:38:16.338Z,4.22
2019-05-26T09:40:48.085Z,4.40
2019-05-26T09:43:19.814Z,3.20
2019-05-26T09:45:51.569Z,3.15
2019-05-26T09:48:23.410Z,4.53
2019-05-26T09:50:55.248Z,3.27
2019-05-26T09:53:26.994Z,3.72
2019-05-26T09:55:58.800Z,3.90
2019-05-26T09:58:30.669Z,3.17
2019-05-26T10:01:02.512Z,15.72
2019-05-26T10:03:34.447Z,3.80
2019-05-26T10:06:06.177Z,4.40
2019-05-26T10:08:37.881Z,4.62
2019-05-26T10:11:09.654Z,4.12
2019-05-26T10:13:41.444Z,3.95
2019-05-26T10:16:13.203Z,3.45
2019-05-26T10:18:44.922Z,3.00
2019-05-26T10:21:16.649Z,3.90
2019-05-26T10:23:48.439Z,4.08
2019-05-26T10:26:20.163Z,3.87
2019-05-26T10:28:52.093Z,3.45
2019-05-26T10:31:23.849Z,3.75
2019-05-26T10:33:55.684Z,4.33
2019-05-26T10:36:27.515Z,4.30
2019-05-26T10:38:59.304Z,3.42
2019-05-26T10:41:31.177Z,4.17
2019-05-26T10:44:03.308Z,3.70
2019-05-26T10:46:35.044Z,4.05
2019-05-26T10:49:06.752Z,3.55
2019-05-26T10:51:38.579Z,3.50
2019-05-26T10:54:10.297Z,3.22
2019-05-26T10:56:42.024Z,3.37
2019-05-26T10:59:13.850Z,3.10
2019-05-26T11:01:45.649Z,3.10
2019-05-26T11:04:17.504Z,3.20
2019-05-26T11:06:49.244Z,3.15
2019-05-26T11:09:21.216Z,2.47
2019-05-26T11:11:53.185Z,3.22
2019-05-26T11:14:24.988Z,2.75
2019-05-26T11:16:56.709Z,2.90
2019-05-26T11:19:28.513Z,2.77
2019-05-26T11:22:00.450Z,2.83
2019-05-26T11:24:32.316Z,2.80
2019-05-26T11:27:09.865Z,3.08
2019-05-26T11:29:37.911Z,3.40
2019-05-26T11:32:09.621Z,3.22
2019-05-26T11:34:41.329Z,4.83
2019-05-26T11:37:13.282Z,3.62
2019-05-26T11:39:44.988Z,4.15
2019-05-26T11:42:16.722Z,3.17
2019-05-26T11:44:48.433Z,4.72
2019-05-26T11:47:20.189Z,5.67
2019-05-26T11:49:51.907Z,4.03
2019-05-26T11:52:23.717Z,4.35
2019-05-26T11:54:55.444Z,3.47
2019-05-26T11:57:27.196Z,2.87
2019-05-26T11:59:59.053Z,6.37
2019-05-26T12:02:30.852Z,3.08
2019-05-26T12:05:03.137Z,3.45
2019-05-26T12:07:35.053Z,3.00
2019-05-26T12:10:07.372Z,3.10
2019-05-26T12:12:39.184Z,3.02
2019-05-26T12:15:12.010Z,3.80
2019-05-26T12:17:43.749Z,3.47
2019-05-26T12:20:19.380Z,3.60
2019-05-26T12:22:51.193Z,2.98
2019-05-26T12:25:23.079Z,3.00
2019-05-26T12:27:54.838Z,2.90
2019-05-26T12:30:26.689Z,3.27
2019-05-26T12:32:58.443Z,4.62
2019-05-26T12:35:45.590Z,4.17
2019-05-26T12:38:17.396Z,4.40
2019-05-26T12:40:49.225Z,3.33
2019-05-26T12:43:20.984Z,2.47
2019-05-26T12:45:52.800Z,3.00
2019-05-26T12:48:24.665Z,3.12
2019-05-26T12:50:56.488Z,3.10
2019-05-26T12:53:28.233Z,2.92
2019-05-26T12:55:59.941Z,2.40
2019-05-26T12:58:31.850Z,2.27
2019-05-26T13:01:03.775Z,3.75
2019-05-26T13:03:35.629Z,3.33
2019-05-26T13:06:07.389Z,2.22
2019-05-26T13:08:39.131Z,2.20
2019-05-26T13:11:10.874Z,2.25
2019-05-26T13:13:42.601Z,2.50
2019-05-26T13:16:14.304Z,3.10
2019-05-26T13:18:46.035Z,2.27
2019-05-26T13:21:17.881Z,2.55
2019-05-26T13:23:49.699Z,2.62
2019-05-26T13:26:21.512Z,2.45
2019-05-26T13:28:53.283Z,2.00
2019-05-26T13:31:25.072Z,4.70
2019-05-26T13:33:56.838Z,2.37
2019-05-26T13:36:28.561Z,1.80
2019-05-26T13:39:00.399Z,1.98
2019-05-26T13:41:32.217Z,1.52
2019-05-26T13:44:04.146Z,2.70
2019-05-26T13:46:35.961Z,1.60
2019-05-26T13:49:08.022Z,1.60
2019-05-26T13:51:39.820Z,1.50
2019-05-26T13:54:11.674Z,2.15
2019-05-26T13:56:43.592Z,2.40
2019-05-26T13:59:15.317Z,3.60
2019-05-26T14:01:47.022Z,1.85
2019-05-26T14:04:18.769Z,1.95
2019-05-26T14:06:50.497Z,1.70
2019-05-26T14:09:22.330Z,2.77
2019-05-26T14:11:54.186Z,2.00
2019-05-26T14:14:26.466Z,1.92
2019-05-26T14:16:59.783Z,3.33
2019-05-26T14:19:33.784Z,2.50
2019-05-26T14:22:05.628Z,2.17
2019-05-26T14:24:50.939Z,4.78
2019-05-26T14:27:11.181Z,3.45
2019-05-26T14:29:42.906Z,3.62
2019-05-26T14:32:14.680Z,11.60
2019-05-26T14:34:46.501Z,1.98
2019-05-26T14:37:18.204Z,1.82
2019-05-26T14:39:50.203Z,1.82
2019-05-26T14:42:22.069Z,1.75
2019-05-26T14:44:53.824Z,1.95
2019-05-26T14:47:25.648Z,2.12
2019-05-26T14:49:57.541Z,2.12
2019-05-26T14:52:29.262Z,3.27
2019-05-26T14:55:01.154Z,2.58
2019-05-26T14:57:32.984Z,2.75
2019-05-26T15:00:04.983Z,5.95
2019-05-26T15:02:36.812Z,3.83
2019-05-26T15:05:09.156Z,2.02
2019-05-26T15:07:41.055Z,2.55
2019-05-26T15:10:13.526Z,1.92
2019-05-26T15:12:47.611Z,1.87
2019-05-26T15:15:22.435Z,1.92
2019-05-26T15:17:54.264Z,1.90
2019-05-26T15:20:26.050Z,1.90
2019-05-26T15:22:57.934Z,2.60
2019-05-26T15:25:29.648Z,1.70
2019-05-26T15:28:01.370Z,3.72
2019-05-26T15:30:33.324Z,1.55
2019-05-26T15:33:05.039Z,3.45
2019-05-26T15:35:36.784Z,3.00
2019-05-26T15:38:08.680Z,2.30
2019-05-26T15:40:40.437Z,2.72
2019-05-26T15:43:12.162Z,2.17
2019-05-26T15:45:45.122Z,2.25
2019-05-26T15:48:18.277Z,5.37
2019-05-26T15:50:50.186Z,3.00
2019-05-26T15:53:21.917Z,2.65
2019-05-26T15:55:53.737Z,4.15
2019-05-26T15:58:25.483Z,3.65
2019-05-26T16:00:57.214Z,2.62
2019-05-26T16:03:29.077Z,2.50
2019-05-26T16:06:00.894Z,1.80
2019-05-26T16:08:32.765Z,2.22
2019-05-26T16:11:04.588Z,2.33
2019-05-26T16:13:36.437Z,2.47
2019-05-26T16:16:08.169Z,1.72
2019-05-26T16:18:40.101Z,1.60
2019-05-26T16:21:26.923Z,2.00
2019-05-26T16:23:45.462Z,2.20
2019-05-26T16:26:17.209Z,2.80
2019-05-26T16:28:48.939Z,2.50
2019-05-26T16:31:20.688Z,1.80
2019-05-26T16:33:52.512Z,2.65
2019-05-26T16:36:24.284Z,2.05
2019-05-26T16:38:56.117Z,1.95
2019-05-26T16:41:27.868Z,2.67
2019-05-26T16:43:59.692Z,3.42
2019-05-26T16:46:31.547Z,3.43
2019-05-26T16:49:05.722Z,5.08
2019-05-26T16:51:37.517Z,3.17
2019-05-26T16:54:09.216Z,3.03
2019-05-26T16:56:41.193Z,3.13
2019-05-26T16:59:12.933Z,2.10
2019-05-26T17:01:44.681Z,4.10
2019-05-26T17:04:16.417Z,1.57
2019-05-26T17:06:48.340Z,1.70
2019-05-26T17:09:20.070Z,1.90
2019-05-26T17:11:52.118Z,2.13
2019-05-26T17:14:24.241Z,2.27
2019-05-26T17:17:11.608Z,1.60
2019-05-26T17:19:29.584Z,2.27
2019-05-26T17:22:01.324Z,2.40
2019-05-26T17:24:33.195Z,1.67
2019-05-26T17:27:05.045Z,2.00
2019-05-26T17:29:36.760Z,2.53
2019-05-26T17:32:08.596Z,4.33
2019-05-26T17:34:40.336Z,3.97
2019-05-26T17:37:12.087Z,5.63
2019-05-26T17:39:44.699Z,5.77
2019-05-26T17:42:16.467Z,1.63
2019-05-26T17:44:48.293Z,1.90
2019-05-26T17:47:29.874Z,1.90
2019-05-26T17:49:53.669Z,6.77
2019-05-26T17:52:25.533Z,1.63
2019-05-26T17:54:57.365Z,1.70
2019-05-26T17:57:29.251Z,2.00
2019-05-26T18:00:00.975Z,2.07
2019-05-26T18:02:32.821Z,2.33
2019-05-26T18:05:04.850Z,1.53
2019-05-26T18:07:36.609Z,1.30
2019-05-26T18:10:08.812Z,1.40
2019-05-26T18:12:40.564Z,1.40
2019-05-26T18:15:12.873Z,1.30
2019-05-26T18:17:47.388Z,1.93
2019-05-26T18:20:18.958Z,2.83
2019-05-26T18:22:50.841Z,1.40
2019-05-26T18:25:22.737Z,1.23
2019-05-26T18:27:54.479Z,1.47
2019-05-26T18:30:26.441Z,1.60
2019-05-26T18:32:58.220Z,1.47
2019-05-26T18:35:30.168Z,1.57
2019-05-26T18:38:02.146Z,2.27
2019-05-26T18:40:34.039Z,2.17
2019-05-26T18:43:05.833Z,1.83
2019-05-26T18:45:37.733Z,2.47
2019-05-26T18:48:09.841Z,7.70
2019-05-26T18:50:41.665Z,2.50
2019-05-26T18:53:13.675Z,2.97
2019-05-26T18:55:45.786Z,1.97
2019-05-26T18:58:17.563Z,3.57
2019-05-26T19:00:49.352Z,3.33
2019-05-26T19:03:21.308Z,2.47
2019-05-26T19:05:53.172Z,1.80
2019-05-26T19:08:25.024Z,1.80
2019-05-26T19:10:56.904Z,1.67
2019-05-26T19:13:29.029Z,2.17
2019-05-26T19:16:00.853Z,2.70
2019-05-26T19:18:32.844Z,1.90
2019-05-26T19:21:05.009Z,1.60
2019-05-26T19:23:37.002Z,1.90
2019-05-26T19:26:09.073Z,1.60
2019-05-26T19:28:40.844Z,1.93
2019-05-26T19:31:12.886Z,1.53
2019-05-26T19:33:44.855Z,1.70
2019-05-26T19:36:16.629Z,2.07
2019-05-26T19:38:48.501Z,2.00
2019-05-26T19:41:20.347Z,1.87
2019-05-26T19:43:52.268Z,1.80
2019-05-26T19:46:24.071Z,1.80
2019-05-26T19:48:55.898Z,2.13
2019-05-26T19:51:27.760Z,2.13
2019-05-26T19:53:59.523Z,2.23
2019-05-26T19:56:31.255Z,2.00
2019-05-26T19:59:05.004Z,5.53
2019-05-26T20:01:36.879Z,2.20
2019-05-26T20:04:08.709Z,3.50
2019-05-26T20:06:43.717Z,2.33
2019-05-26T20:09:14.329Z,2.90
2019-05-26T20:11:46.153Z,2.90
2019-05-26T20:14:17.893Z,2.47
2019-05-26T20:16:49.701Z,2.10
2019-05-26T20:19:21.429Z,1.97
2019-05-26T20:21:53.131Z,2.07
2019-05-26T20:24:24.873Z,1.77
2019-05-26T20:26:56.586Z,1.93
2019-05-26T20:29:28.411Z,1.80
2019-05-26T20:32:00.214Z,2.13
2019-05-26T20:34:31.939Z,2.10
2019-05-26T20:37:03.753Z,2.20
2019-05-26T20:39:35.594Z,2.47
2019-05-26T20:42:07.401Z,2.83
2019-05-26T20:44:39.136Z,2.97
2019-05-26T20:47:10.917Z,1.97
2019-05-26T20:49:45.693Z,2.33
2019-05-26T20:52:16.390Z,2.53
2019-05-26T20:54:48.169Z,2.20
2019-05-26T20:57:19.900Z,2.43
2019-05-26T20:59:51.616Z,2.30
2019-05-26T21:02:23.330Z,2.37
2019-05-26T21:04:55.050Z,2.50
2019-05-26T21:07:27.608Z,2.60
2019-05-26T21:09:59.317Z,2.20
2019-05-26T21:12:31.033Z,2.60
2019-05-26T21:15:04.620Z,2.60
2019-05-26T21:17:36.322Z,2.77
2019-05-26T21:20:09.254Z,2.70
2019-05-26T21:22:40.977Z,2.47
2019-05-26T21:25:12.899Z,2.50
2019-05-26T21:27:44.596Z,2.90
2019-05-26T21:30:16.439Z,2.50
2019-05-26T21:32:48.138Z,2.63
2019-05-26T21:35:19.932Z,2.57
2019-05-26T21:37:51.632Z,2.63
2019-05-26T21:40:23.350Z,2.63
2019-05-26T21:42:55.151Z,3.00
2019-05-26T21:45:26.888Z,2.90
2019-05-26T21:47:58.597Z,2.53
2019-05-26T21:50:30.305Z,2.93
2019-05-26T21:53:02.117Z,2.73
2019-05-26T21:55:33.866Z,3.20
2019-05-26T21:58:05.559Z,3.53
2019-05-26T22:00:44.845Z,3.20
2019-05-26T22:03:16.782Z,3.20
2019-05-26T22:05:48.505Z,3.00
2019-05-26T22:08:20.315Z,3.20
2019-05-26T22:10:52.116Z,3.60
2019-05-26T22:13:23.802Z,3.13
2019-05-26T22:15:55.520Z,3.07
2019-05-26T22:18:27.234Z,2.83
2019-05-26T22:20:58.961Z,3.40
2019-05-26T22:23:30.862Z,2.90
2019-05-26T22:26:02.577Z,3.37
2019-05-26T22:28:34.300Z,3.37
2019-05-26T22:31:06.277Z,2.87
2019-05-26T22:33:37.980Z,3.10
2019-05-26T22:36:09.914Z,3.20
2019-05-26T22:38:41.616Z,3.63
2019-05-26T22:41:13.428Z,3.40
2019-05-26T22:43:45.136Z,3.10
2019-05-26T22:46:16.870Z,3.20
2019-05-26T22:48:48.584Z,3.30
2019-05-26T22:51:20.328Z,3.23
2019-05-26T22:53:52.129Z,3.60
2019-05-26T22:56:23.956Z,3.70
2019-05-26T22:58:55.752Z,3.00
2019-05-26T23:01:27.477Z,3.03
2019-05-26T23:03:59.297Z,3.70
2019-05-26T23:06:31.013Z,3.70
2019-05-26T23:09:04.501Z,2.80
2019-05-26T23:11:36.234Z,3.30
2019-05-26T23:14:08.042Z,3.20
2019-05-26T23:16:39.740Z,3.20
2019-05-26T23:19:19.292Z,3.30
2019-05-26T23:21:45.040Z,3.53
2019-05-26T23:24:16.748Z,3.57
2019-05-26T23:26:48.588Z,3.20
2019-05-26T23:29:20.365Z,2.77
2019-05-26T23:31:52.086Z,3.40
2019-05-26T23:34:23.804Z,3.30
2019-05-26T23:36:55.605Z,3.10
2019-05-26T23:39:27.308Z,2.97
2019-05-26T23:41:59.045Z,3.40
2019-05-26T23:44:30.759Z,3.10
2019-05-26T23:47:02.496Z,3.93
2019-05-26T23:49:34.304Z,2.97
2019-05-26T23:52:06.332Z,3.13
2019-05-26T23:54:38.033Z,3.43
2019-05-26T23:57:09.756Z,3.20
2019-05-26T23:59:41.459Z,2.70
